Time;durP1;ratioP1;P1;durP2;ratioP2;P2;SDS_P1;SDS_P2;PMS_P1;PMS_P2;Temp;Humidity;BMP_temperature;BMP_pressure;BME280_temperature;BME280_humidity;BME280_pressure;Samples;Min_cycle;Max_cycle;Signal;HPM_P1;HPM_P2
2022/10/05 00:01:27;;;;;;;;;;;13.00;99.90;;;;;;5066377;28;20291;-67
2022/10/05 00:04:14;;;;;;;;;;;13.00;99.90;;;;;;5063012;28;19926;-68
2022/10/05 00:06:42;;;;;;;;;;;12.90;99.90;;;;;;5062145;28;19920;-68
2022/10/05 00:09:12;;;;;;;;;;;12.90;99.90;;;;;;5067333;28;19966;-70
2022/10/05 00:11:38;;;;;;;;;;;12.90;99.90;;;;;;5065592;28;20375;-71
2022/10/05 00:14:25;;;;;;;;;;;12.90;99.90;;;;;;5049442;28;20003;-68
2022/10/05 00:16:52;;;;;;;;;;;12.90;99.90;;;;;;5057891;28;19942;-68
2022/10/05 00:19:22;;;;;;;;;;;12.90;99.90;;;;;;5066806;28;19920;-69
2022/10/05 00:21:49;;;;;;;;;;;12.90;99.90;;;;;;5066219;28;20810;-68
2022/10/05 00:24:18;;;;;;;;;;;12.90;99.90;;;;;;5066169;28;19955;-69
2022/10/05 00:26:45;;;;;;;;;;;12.80;99.90;;;;;;5065044;28;19920;-68
2022/10/05 00:29:21;;;;;;;;;;;12.80;99.90;;;;;;5066050;28;19920;-68
2022/10/05 00:31:49;;;;;;;;;;;12.90;99.90;;;;;;5044304;28;20079;-70
2022/10/05 00:34:16;;;;;;;;;;;12.90;99.90;;;;;;5066422;28;19920;-68
2022/10/05 00:36:44;;;;;;;;;;;12.90;99.90;;;;;;5060590;28;20102;-70
2022/10/05 00:39:11;;;;;;;;;;;12.90;99.90;;;;;;5066731;28;19963;-67
2022/10/05 00:41:57;;;;;;;;;;;12.90;99.90;;;;;;5057039;28;20411;-71
2022/10/05 00:44:39;;;;;;;;;;;12.80;99.90;;;;;;5065779;28;20284;-68
2022/10/05 00:47:13;;;;;;;;;;;12.80;99.90;;;;;;5051812;28;19959;-70
2022/10/05 00:50:06;;;;;;;;;;;12.80;99.90;;;;;;5063031;28;19921;-70
2022/10/05 00:52:36;;;;;;;;;;;12.80;99.90;;;;;;5037788;28;19920;-68
2022/10/05 00:55:08;;;;;;;;;;;12.80;99.90;;;;;;5048405;28;19924;-68
2022/10/05 00:57:54;;;;;;;;;;;12.80;99.90;;;;;;5066859;28;20011;-69
2022/10/05 01:00:23;;;;;;;;;;;12.80;99.90;;;;;;5064660;28;19928;-68
2022/10/05 01:02:58;;;;;;;;;;;12.80;99.90;;;;;;5046397;28;20313;-69
2022/10/05 01:05:43;;;;;;;;;;;12.70;99.90;;;;;;5047424;28;19938;-68
2022/10/05 01:08:16;;;;;;;;;;;12.70;99.90;;;;;;5062454;28;19940;-70
2022/10/05 01:11:07;;;;;;;;;;;12.70;99.90;;;;;;5061423;28;19999;-68
2022/10/05 01:13:33;;;;;;;;;;;12.70;99.90;;;;;;5063344;28;19920;-71
2022/10/05 01:16:02;;;;;;;;;;;12.60;99.90;;;;;;5043151;28;19966;-67
2022/10/05 01:18:53;;;;;;;;;;;12.60;99.90;;;;;;5047565;28;20314;-70
2022/10/05 01:21:21;;;;;;;;;;;12.60;99.90;;;;;;5052220;28;20312;-68
2022/10/05 01:23:58;;;;;;;;;;;12.60;99.90;;;;;;5066248;28;20446;-68
2022/10/05 01:26:24;;;;;;;;;;;12.60;99.90;;;;;;5046563;28;19971;-68
2022/10/05 01:28:55;;;;;;;;;;;12.60;99.90;;;;;;5043627;28;19920;-71
2022/10/05 01:31:31;;;;;;;;;;;12.60;99.90;;;;;;5061501;28;19921;-68
2022/10/05 01:34:07;;;;;;;;;;;12.60;99.90;;;;;;5064593;28;20571;-67
2022/10/05 01:36:37;;;;;;;;;;;12.60;99.90;;;;;;5041425;28;20022;-72
2022/10/05 01:39:22;;;;;;;;;;;12.60;99.90;;;;;;5066639;28;19920;-69
2022/10/05 01:41:55;;;;;;;;;;;12.50;99.90;;;;;;5063636;28;20031;-68
2022/10/05 01:44:29;;;;;;;;;;;12.50;99.90;;;;;;5049959;28;20320;-70
2022/10/05 01:47:05;;;;;;;;;;;12.50;99.90;;;;;;5045679;28;20374;-68
2022/10/05 01:49:46;;;;;;;;;;;12.50;99.90;;;;;;5049295;28;19920;-69
2022/10/05 01:52:13;;;;;;;;;;;12.50;99.90;;;;;;5049785;28;19963;-68
2022/10/05 01:54:50;;;;;;;;;;;12.50;99.90;;;;;;5048359;28;19920;-71
2022/10/05 01:57:20;;;;;;;;;;;12.40;99.90;;;;;;5064770;28;20374;-67
2022/10/05 02:00:02;;;;;;;;;;;12.40;99.90;;;;;;5050619;28;19931;-70
2022/10/05 02:02:47;;;;;;;;;;;12.50;99.90;;;;;;5064282;28;20324;-71
2022/10/05 02:05:23;;;;;;;;;;;12.40;99.90;;;;;;5067916;28;19928;-70
2022/10/05 02:07:56;;;;;;;;;;;12.50;99.90;;;;;;5063843;28;19993;-68
2022/10/05 02:10:29;;;;;;;;;;;12.40;99.90;;;;;;5062773;28;19928;-67
2022/10/05 02:12:59;;;;;;;;;;;12.40;99.90;;;;;;5067624;28;20019;-67
2022/10/05 02:15:44;;;;;;;;;;;12.40;99.90;;;;;;5049174;28;19947;-70
2022/10/05 02:18:22;;;;;;;;;;;12.40;99.90;;;;;;5039474;28;19928;-69
2022/10/05 02:20:51;;;;;;;;;;;12.30;99.90;;;;;;5046318;28;19974;-71
2022/10/05 02:23:21;;;;;;;;;;;12.30;99.90;;;;;;5068792;28;20057;-67
2022/10/05 02:25:50;;;;;;;;;;;12.30;99.90;;;;;;5064588;28;19924;-66
2022/10/05 02:28:27;;;;;;;;;;;12.30;99.90;;;;;;5042362;28;20567;-67
2022/10/05 02:31:14;;;;;;;;;;;12.30;99.90;;;;;;5063615;28;19929;-67
2022/10/05 02:33:41;;;;;;;;;;;12.40;99.90;;;;;;5064053;28;20435;-68
2022/10/05 02:36:14;;;;;;;;;;;12.40;99.90;;;;;;5050124;28;19920;-67
2022/10/05 02:39:03;;;;;;;;;;;12.50;99.90;;;;;;5048449;28;20023;-69
2022/10/05 02:41:34;;;;;;;;;;;12.50;99.90;;;;;;5048814;28;20369;-68
2022/10/05 02:44:17;;;;;;;;;;;12.50;99.90;;;;;;5050594;28;19927;-70
2022/10/05 02:46:57;;;;;;;;;;;12.50;99.90;;;;;;5064814;28;19993;-67
2022/10/05 02:49:48;;;;;;;;;;;12.50;99.90;;;;;;5046440;28;20384;-67
2022/10/05 02:52:15;;;;;;;;;;;12.50;99.90;;;;;;5053039;28;20035;-69
2022/10/05 02:54:48;;;;;;;;;;;12.60;99.90;;;;;;5066187;28;20009;-68
2022/10/05 02:57:45;;;;;;;;;;;12.60;99.90;;;;;;5049672;28;19924;-67
2022/10/05 03:00:16;;;;;;;;;;;12.60;99.90;;;;;;5055440;28;19993;-69
2022/10/05 03:02:54;;;;;;;;;;;12.60;99.90;;;;;;5062318;28;19924;-69
2022/10/05 03:05:22;;;;;;;;;;;12.60;99.90;;;;;;5048803;28;20011;-68
2022/10/05 03:07:54;;;;;;;;;;;12.70;99.90;;;;;;5055105;28;19942;-68
2022/10/05 03:10:25;;;;;;;;;;;12.70;99.90;;;;;;5050201;28;19951;-68
2022/10/05 03:12:59;;;;;;;;;;;12.70;99.90;;;;;;5045281;28;19924;-68
2022/10/05 03:15:26;;;;;;;;;;;12.80;99.90;;;;;;5046283;28;19931;-68
2022/10/05 03:18:02;;;;;;;;;;;12.80;99.90;;;;;;5047678;28;19981;-70
2022/10/05 03:20:41;;;;;;;;;;;12.80;99.90;;;;;;5067619;28;19924;-67
2022/10/05 03:23:18;;;;;;;;;;;12.80;99.90;;;;;;5063860;28;20026;-68
2022/10/05 03:25:51;;;;;;;;;;;12.80;99.90;;;;;;5049733;28;19925;-68
2022/10/05 03:28:23;;;;;;;;;;;12.80;99.90;;;;;;5067418;28;19928;-69
2022/10/05 03:31:00;;;;;;;;;;;12.80;99.90;;;;;;5047882;28;19920;-69
2022/10/05 03:33:42;;;;;;;;;;;12.80;99.90;;;;;;5042873;28;19925;-70
2022/10/05 03:36:37;;;;;;;;;;;12.80;99.90;;;;;;5049692;28;19924;-68
2022/10/05 03:39:26;;;;;;;;;;;12.80;99.90;;;;;;5050234;28;20419;-68
2022/10/05 03:42:04;;;;;;;;;;;12.90;99.90;;;;;;5047194;28;20374;-68
2022/10/05 03:44:34;;;;;;;;;;;12.90;99.90;;;;;;5047833;28;19920;-69
2022/10/05 03:47:20;;;;;;;;;;;12.90;99.90;;;;;;5046836;28;19934;-69
2022/10/05 03:49:47;;;;;;;;;;;12.80;99.90;;;;;;5060630;28;20315;-68
2022/10/05 03:52:22;;;;;;;;;;;12.80;99.90;;;;;;5049266;28;19944;-74
2022/10/05 03:54:52;;;;;;;;;;;12.80;99.90;;;;;;5062486;28;19942;-68
2022/10/05 03:57:22;;;;;;;;;;;12.80;99.90;;;;;;5067312;28;19966;-68
2022/10/05 03:59:49;;;;;;;;;;;12.90;99.90;;;;;;5048601;28;19932;-68
2022/10/05 04:02:39;;;;;;;;;;;12.90;99.90;;;;;;5070282;28;19924;-68
2022/10/05 04:05:06;;;;;;;;;;;12.90;99.90;;;;;;5038464;28;19926;-69
2022/10/05 04:07:37;;;;;;;;;;;12.80;99.90;;;;;;5062691;28;20011;-68
2022/10/05 04:10:08;;;;;;;;;;;12.90;99.90;;;;;;5043111;28;20439;-68
2022/10/05 04:12:37;;;;;;;;;;;12.90;99.90;;;;;;5046680;28;19920;-68
2022/10/05 04:15:21;;;;;;;;;;;12.90;99.90;;;;;;5065879;28;20091;-69
2022/10/05 04:17:51;;;;;;;;;;;12.90;99.90;;;;;;5059446;28;20342;-68
2022/10/05 04:20:23;;;;;;;;;;;12.90;99.90;;;;;;5061397;28;19920;-67
2022/10/05 04:23:00;;;;;;;;;;;13.00;99.90;;;;;;5059952;28;20377;-69
2022/10/05 04:25:33;;;;;;;;;;;13.00;99.90;;;;;;5047309;28;19925;-69
2022/10/05 04:28:03;;;;;;;;;;;13.00;99.90;;;;;;5064029;28;19921;-70
2022/10/05 04:30:31;;;;;;;;;;;13.00;99.90;;;;;;5077510;28;19924;-68
2022/10/05 04:32:59;;;;;;;;;;;13.00;99.90;;;;;;5041930;28;19978;-70
2022/10/05 04:35:47;;;;;;;;;;;13.00;99.90;;;;;;5045325;28;19924;-68
2022/10/05 04:38:32;;;;;;;;;;;13.00;99.90;;;;;;5066067;28;20326;-70
2022/10/05 04:41:06;;;;;;;;;;;13.00;99.90;;;;;;5052817;28;19960;-67
2022/10/05 04:43:45;;;;;;;;;;;13.00;99.90;;;;;;5053661;28;19920;-67
2022/10/05 04:46:31;;;;;;;;;;;13.10;99.90;;;;;;5043404;28;19931;-68
2022/10/05 04:49:06;;;;;;;;;;;13.10;99.90;;;;;;5042541;28;19969;-69
2022/10/05 04:51:33;;;;;;;;;;;13.10;99.90;;;;;;5039817;28;19921;-67
2022/10/05 04:54:09;;;;;;;;;;;13.10;99.90;;;;;;5044636;28;19921;-69
2022/10/05 04:56:39;;;;;;;;;;;13.10;99.90;;;;;;5060840;28;20429;-68
2022/10/05 04:59:13;;;;;;;;;;;13.20;99.90;;;;;;5046844;28;19928;-69
2022/10/05 05:01:45;;;;;;;;;;;13.20;99.90;;;;;;5047036;28;19962;-73
2022/10/05 05:04:32;;;;;;;;;;;13.20;99.90;;;;;;5071863;28;20415;-71
2022/10/05 05:07:21;;;;;;;;;;;13.20;99.90;;;;;;5044623;28;19944;-67
2022/10/05 05:10:07;;;;;;;;;;;13.30;99.90;;;;;;5047275;28;19920;-67
2022/10/05 05:12:46;;;;;;;;;;;13.30;99.90;;;;;;5031244;28;20015;-70
2022/10/05 05:15:17;;;;;;;;;;;13.30;99.90;;;;;;5069070;28;19920;-72
2022/10/05 05:18:02;;;;;;;;;;;13.30;99.90;;;;;;5062860;28;19920;-69
2022/10/05 05:20:40;;;;;;;;;;;13.30;99.90;;;;;;5064814;28;20027;-68
2022/10/05 05:23:13;;;;;;;;;;;13.30;99.90;;;;;;5066119;28;20027;-68
2022/10/05 05:25:40;;;;;;;;;;;13.30;99.90;;;;;;5045126;28;19921;-69
2022/10/05 05:28:19;;;;;;;;;;;13.30;99.90;;;;;;5050150;28;19994;-67
2022/10/05 05:30:55;;;;;;;;;;;13.30;99.90;;;;;;5046486;28;19921;-68
2022/10/05 05:33:29;;;;;;;;;;;13.30;99.90;;;;;;5064622;28;20289;-68
2022/10/05 05:36:14;;;;;;;;;;;13.30;99.90;;;;;;5047368;28;19966;-67
2022/10/05 05:39:12;;;;;;;;;;;13.30;99.90;;;;;;5048704;28;20337;-70
2022/10/05 05:41:50;;;;;;;;;;;13.30;99.90;;;;;;5040445;28;19928;-69
2022/10/05 05:44:22;;;;;;;;;;;13.40;99.90;;;;;;5050490;28;19929;-68
2022/10/05 05:47:16;;;;;;;;;;;13.40;99.90;;;;;;5048787;28;20011;-72
2022/10/05 05:49:53;;;;;;;;;;;13.40;99.90;;;;;;5061971;28;19922;-70
2022/10/05 05:52:23;;;;;;;;;;;13.40;99.90;;;;;;5048650;28;19956;-68
2022/10/05 05:55:03;;;;;;;;;;;13.40;99.90;;;;;;5048613;28;19928;-68
2022/10/05 05:57:39;;;;;;;;;;;13.40;99.90;;;;;;5046684;28;19928;-69
2022/10/05 06:00:12;;;;;;;;;;;13.40;99.90;;;;;;5040697;28;19928;-70
2022/10/05 06:02:59;;;;;;;;;;;13.40;99.90;;;;;;5060687;28;19926;-70
2022/10/05 06:05:31;;;;;;;;;;;13.40;99.90;;;;;;5047599;28;20360;-68
2022/10/05 06:08:05;;;;;;;;;;;13.40;99.90;;;;;;5045839;28;19954;-69
2022/10/05 06:10:42;;;;;;;;;;;13.50;99.90;;;;;;5049883;28;20419;-68
2022/10/05 06:13:19;;;;;;;;;;;13.50;99.90;;;;;;5069229;28;20022;-70
2022/10/05 06:15:53;;;;;;;;;;;13.50;99.90;;;;;;5071758;28;19955;-67
2022/10/05 06:18:21;;;;;;;;;;;13.50;99.90;;;;;;5052772;28;20048;-70
2022/10/05 06:20:56;;;;;;;;;;;13.50;99.90;;;;;;5047326;28;19968;-69
2022/10/05 06:23:26;;;;;;;;;;;13.60;99.90;;;;;;5041566;28;19931;-68
2022/10/05 06:25:53;;;;;;;;;;;13.60;99.90;;;;;;5049538;28;19924;-70
2022/10/05 06:28:23;;;;;;;;;;;13.60;99.90;;;;;;5050203;28;19960;-69
2022/10/05 06:31:03;;;;;;;;;;;13.60;99.90;;;;;;5045992;28;20412;-69
2022/10/05 06:33:35;;;;;;;;;;;13.60;99.90;;;;;;5045094;28;19924;-69
2022/10/05 06:36:11;;;;;;;;;;;13.60;99.90;;;;;;5068175;28;19987;-69
2022/10/05 06:38:38;;;;;;;;;;;13.70;99.90;;;;;;5062394;28;19920;-70
2022/10/05 06:41:19;;;;;;;;;;;13.60;99.90;;;;;;5045888;28;19936;-70
2022/10/05 06:43:50;;;;;;;;;;;13.60;99.90;;;;;;5063175;28;20022;-68
2022/10/05 06:46:44;;;;;;;;;;;13.70;99.90;;;;;;5065568;28;19927;-68
2022/10/05 06:50:02;;;;;;;;;;;13.70;99.90;;;;;;5021964;28;19924;-68
2022/10/05 06:52:51;;;;;;;;;;;13.70;99.90;;;;;;5067184;28;20027;-68
2022/10/05 06:55:21;;;;;;;;;;;13.60;99.90;;;;;;5061160;28;19936;-68
2022/10/05 06:58:12;;;;;;;;;;;13.70;99.90;;;;;;5047187;28;20018;-68
2022/10/05 07:00:47;;;;;;;;;;;13.70;99.90;;;;;;5032035;28;19967;-69
2022/10/05 07:03:20;;;;;;;;;;;13.70;99.90;;;;;;5065002;28;20316;-69
2022/10/05 07:05:47;;;;;;;;;;;13.70;99.90;;;;;;5045288;28;20367;-69
2022/10/05 07:08:21;;;;;;;;;;;13.70;99.90;;;;;;5047566;28;19974;-69
2022/10/05 07:11:12;;;;;;;;;;;13.70;99.90;;;;;;5046142;28;19928;-69
2022/10/05 07:13:39;;;;;;;;;;;13.70;99.90;;;;;;5057647;28;20013;-70
2022/10/05 07:16:06;;;;;;;;;;;13.70;99.90;;;;;;5048144;28;19936;-69
2022/10/05 07:18:54;;;;;;;;;;;13.70;99.90;;;;;;5063701;28;19927;-69
2022/10/05 07:21:21;;;;;;;;;;;13.70;99.90;;;;;;5058757;28;19934;-70
2022/10/05 07:24:06;;;;;;;;;;;13.70;99.90;;;;;;5065300;28;20039;-70
2022/10/05 07:26:57;;;;;;;;;;;13.70;99.90;;;;;;5043675;28;19930;-69
2022/10/05 07:29:39;;;;;;;;;;;13.70;99.90;;;;;;5036186;28;19920;-70
2022/10/05 07:32:27;;;;;;;;;;;13.70;99.90;;;;;;5063028;28;19924;-71
2022/10/05 07:34:56;;;;;;;;;;;13.70;99.90;;;;;;5046329;28;19920;-70
2022/10/05 07:37:54;;;;;;;;;;;13.70;99.90;;;;;;5046339;28;19931;-70
2022/10/05 07:40:31;;;;;;;;;;;13.70;99.90;;;;;;5040398;28;19960;-71
2022/10/05 07:42:58;;;;;;;;;;;13.70;99.90;;;;;;5059860;28;19920;-70
2022/10/05 07:45:43;;;;;;;;;;;13.70;99.90;;;;;;5045870;28;19993;-69
2022/10/05 07:48:31;;;;;;;;;;;13.70;99.90;;;;;;5044851;28;19925;-70
2022/10/05 07:51:35;;;;;;;;;;;13.70;99.90;;;;;;5040607;28;20004;-69
2022/10/05 07:54:05;;;;;;;;;;;13.70;99.90;;;;;;4943454;28;19928;-72
2022/10/05 07:56:35;;;;;;;;;;;13.70;99.90;;;;;;5028669;28;19970;-69
2022/10/05 07:59:06;;;;;;;;;;;13.70;99.90;;;;;;5058239;28;19920;-71
2022/10/05 08:01:35;;;;;;;;;;;13.80;99.90;;;;;;5063650;28;20230;-70
2022/10/05 08:04:13;;;;;;;;;;;13.80;99.90;;;;;;5043912;28;19958;-71
2022/10/05 08:06:43;;;;;;;;;;;13.90;99.90;;;;;;5059846;28;19924;-71
2022/10/05 08:09:13;;;;;;;;;;;13.90;99.90;;;;;;5044620;28;19962;-69
2022/10/05 08:11:59;;;;;;;;;;;13.90;99.90;;;;;;5063236;28;19920;-69
2022/10/05 08:14:41;;;;;;;;;;;13.90;99.90;;;;;;5064628;28;20020;-70
2022/10/05 08:17:12;;;;;;;;;;;14.00;99.90;;;;;;5061061;28;20047;-70
2022/10/05 08:19:45;;;;;;;;;;;14.00;99.90;;;;;;5066515;28;19928;-71
2022/10/05 08:22:18;;;;;;;;;;;14.00;99.90;;;;;;5066864;28;19920;-70
2022/10/05 08:24:50;;;;;;;;;;;14.00;99.90;;;;;;5064231;28;19943;-71
2022/10/05 08:27:29;;;;;;;;;;;14.00;99.90;;;;;;5067331;28;19920;-70
2022/10/05 08:30:04;;;;;;;;;;;14.00;99.90;;;;;;5064042;28;19931;-70
2022/10/05 08:32:50;;;;;;;;;;;14.00;99.90;;;;;;5066745;28;19926;-70
2022/10/05 08:35:26;;;;;;;;;;;13.90;99.90;;;;;;5060431;28;19931;-71
2022/10/05 08:37:53;;;;;;;;;;;14.00;99.90;;;;;;5066020;28;19920;-71
2022/10/05 08:40:32;;;;;;;;;;;14.00;99.90;;;;;;5065295;28;20003;-71
2022/10/05 08:43:18;;;;;;;;;;;14.10;99.90;;;;;;5057346;28;19921;-70
2022/10/05 08:46:03;;;;;;;;;;;14.10;99.90;;;;;;5066199;28;20534;-71
2022/10/05 08:48:39;;;;;;;;;;;14.10;99.90;;;;;;5066824;28;19951;-71
2022/10/05 08:51:21;;;;;;;;;;;14.10;99.90;;;;;;5060347;28;20016;-71
2022/10/05 08:53:57;;;;;;;;;;;14.20;99.90;;;;;;5070063;28;19928;-70
2022/10/05 08:56:32;;;;;;;;;;;14.20;99.90;;;;;;5066905;28;20412;-70
2022/10/05 08:58:59;;;;;;;;;;;14.20;99.90;;;;;;5069346;28;19920;-69
2022/10/05 09:01:41;;;;;;;;;;;14.20;99.90;;;;;;5070549;28;20030;-72
2022/10/05 09:04:14;;;;;;;;;;;14.30;99.90;;;;;;5068280;28;19921;-70
2022/10/05 09:06:43;;;;;;;;;;;14.30;99.90;;;;;;5067872;28;20450;-71
2022/10/05 09:09:19;;;;;;;;;;;14.40;99.90;;;;;;5053982;28;20012;-71
2022/10/05 09:11:49;;;;;;;;;;;14.40;99.90;;;;;;5058215;28;20371;-70
2022/10/05 09:14:23;;;;;;;;;;;14.40;99.90;;;;;;5050099;28;20022;-70
2022/10/05 09:16:57;;;;;;;;;;;14.40;99.90;;;;;;5064278;28;19932;-70
2022/10/05 09:19:36;;;;;;;;;;;14.40;99.90;;;;;;5069854;28;20321;-70
2022/10/05 09:22:21;;;;;;;;;;;14.40;99.90;;;;;;5067684;28;19978;-70
2022/10/05 09:24:56;;;;;;;;;;;14.50;99.90;;;;;;5066007;28;20432;-70
2022/10/05 09:27:31;;;;;;;;;;;14.60;99.90;;;;;;5069940;28;19927;-70
2022/10/05 09:30:04;;;;;;;;;;;14.60;99.90;;;;;;5066467;28;19955;-70
2022/10/05 09:32:50;;;;;;;;;;;14.70;99.90;;;;;;5069584;28;19958;-70
2022/10/05 09:35:35;;;;;;;;;;;14.70;99.90;;;;;;5065647;28;19931;-70
2022/10/05 09:38:19;;;;;;;;;;;14.80;99.90;;;;;;5066226;28;19920;-70
2022/10/05 09:41:05;;;;;;;;;;;14.90;99.90;;;;;;5067947;28;19960;-70
2022/10/05 09:43:31;;;;;;;;;;;15.00;99.90;;;;;;5063603;28;19974;-70
2022/10/05 09:45:58;;;;;;;;;;;15.00;99.90;;;;;;5069062;28;19920;-70
2022/10/05 09:48:43;;;;;;;;;;;15.00;99.90;;;;;;5069461;28;20261;-71
2022/10/05 09:51:29;;;;;;;;;;;15.00;99.90;;;;;;5067764;28;20019;-69
2022/10/05 09:54:20;;;;;;;;;;;15.00;99.90;;;;;;5068350;28;20838;-71
2022/10/05 09:56:47;;;;;;;;;;;15.00;99.90;;;;;;5064801;28;19921;-70
2022/10/05 09:59:22;;;;;;;;;;;15.00;99.90;;;;;;5044478;28;19920;-70
2022/10/05 10:02:08;;;;;;;;;;;15.00;99.90;;;;;;5068674;28;19932;-70
2022/10/05 10:04:38;;;;;;;;;;;15.00;99.90;;;;;;5067384;28;19973;-69
2022/10/05 10:07:15;;;;;;;;;;;15.00;99.90;;;;;;5068927;28;19982;-69
2022/10/05 10:10:08;;;;;;;;;;;15.10;99.90;;;;;;5041441;28;19970;-70
2022/10/05 10:12:53;;;;;;;;;;;15.10;99.90;;;;;;5043639;28;20383;-68
2022/10/05 10:15:23;;;;;;;;;;;15.20;99.90;;;;;;5069273;28;19963;-70
2022/10/05 10:18:02;;;;;;;;;;;15.40;99.90;;;;;;5067009;28;19924;-70
2022/10/05 10:20:31;;;;;;;;;;;15.40;99.90;;;;;;5063899;28;19924;-70
2022/10/05 10:22:58;;;;;;;;;;;15.50;99.90;;;;;;5063993;28;19928;-70
2022/10/05 10:25:31;;;;;;;;;;;15.60;99.90;;;;;;5068417;28;19921;-70
2022/10/05 10:28:11;;;;;;;;;;;15.70;99.90;;;;;;5065811;28;20053;-69
2022/10/05 10:30:54;;;;;;;;;;;15.90;99.90;;;;;;5063998;28;19974;-69
2022/10/05 10:33:39;;;;;;;;;;;16.00;99.90;;;;;;5064615;28;19927;-69
2022/10/05 10:36:06;;;;;;;;;;;15.90;99.90;;;;;;5061208;28;20391;-69
2022/10/05 10:38:46;;;;;;;;;;;15.90;99.90;;;;;;5063452;28;19921;-69
2022/10/05 10:41:36;;;;;;;;;;;15.80;99.90;;;;;;5064707;28;19978;-70
2022/10/05 10:44:21;;;;;;;;;;;15.80;99.90;;;;;;5045085;28;19960;-69
2022/10/05 10:47:07;;;;;;;;;;;15.80;99.90;;;;;;5064263;28;19921;-70
2022/10/05 10:49:33;;;;;;;;;;;15.70;99.90;;;;;;5064963;28;20008;-70
2022/10/05 10:52:04;;;;;;;;;;;15.70;99.90;;;;;;5065048;28;20612;-70
2022/10/05 10:54:31;;;;;;;;;;;15.70;99.90;;;;;;5066571;28;20350;-70
2022/10/05 10:57:04;;;;;;;;;;;15.80;99.90;;;;;;5061448;28;19920;-70
2022/10/05 11:00:00;;;;;;;;;;;15.80;99.90;;;;;;5064226;28;20006;-69
2022/10/05 11:02:36;;;;;;;;;;;15.90;99.90;;;;;;5061476;28;20051;-70
2022/10/05 11:05:05;;;;;;;;;;;16.00;99.90;;;;;;5062551;28;19921;-70
2022/10/05 11:07:51;;;;;;;;;;;16.00;99.90;;;;;;5063960;28;20015;-70
2022/10/05 11:10:32;;;;;;;;;;;16.00;99.90;;;;;;5067166;28;19954;-70
2022/10/05 11:13:08;;;;;;;;;;;15.90;99.90;;;;;;5065666;28;19921;-70
2022/10/05 11:15:44;;;;;;;;;;;15.90;99.90;;;;;;5061764;28;19986;-70
2022/10/05 11:18:14;;;;;;;;;;;15.90;99.90;;;;;;5065368;28;19982;-70
2022/10/05 11:20:54;;;;;;;;;;;15.80;99.90;;;;;;5057740;28;20302;-70
2022/10/05 11:23:39;;;;;;;;;;;15.80;99.90;;;;;;5067286;28;20002;-70
2022/10/05 11:26:18;;;;;;;;;;;15.80;99.90;;;;;;5067032;28;19920;-70
2022/10/05 11:28:51;;;;;;;;;;;15.80;99.90;;;;;;5062339;28;19921;-70
2022/10/05 11:31:37;;;;;;;;;;;15.90;99.90;;;;;;5067466;28;19932;-70
2022/10/05 11:34:08;;;;;;;;;;;15.90;99.90;;;;;;5063755;28;20069;-70
2022/10/05 11:36:41;;;;;;;;;;;15.80;99.90;;;;;;5065400;28;19986;-69
2022/10/05 11:39:27;;;;;;;;;;;15.90;99.90;;;;;;5065677;28;19926;-70
2022/10/05 11:42:00;;;;;;;;;;;15.90;99.90;;;;;;5066010;28;19924;-68
2022/10/05 11:44:37;;;;;;;;;;;15.90;99.90;;;;;;5063647;28;19951;-71
2022/10/05 11:47:10;;;;;;;;;;;15.90;99.90;;;;;;5065137;28;19999;-70
2022/10/05 11:49:36;;;;;;;;;;;15.80;99.90;;;;;;5059529;28;19974;-70
2022/10/05 11:52:23;;;;;;;;;;;15.80;99.90;;;;;;5066366;28;20255;-70
2022/10/05 11:54:57;;;;;;;;;;;15.90;99.90;;;;;;5060925;28;20421;-70
2022/10/05 11:57:40;;;;;;;;;;;15.90;99.90;;;;;;5060383;28;19920;-69
2022/10/05 12:00:15;;;;;;;;;;;15.90;99.90;;;;;;5066429;28;19924;-70
2022/10/05 12:03:00;;;;;;;;;;;15.90;99.90;;;;;;5046827;28;19962;-70
2022/10/05 12:05:47;;;;;;;;;;;15.80;99.90;;;;;;5064713;28;19924;-70
2022/10/05 12:08:32;;;;;;;;;;;15.90;99.90;;;;;;5066468;28;19942;-71
2022/10/05 12:11:02;;;;;;;;;;;16.00;99.90;;;;;;5062549;28;19944;-70
2022/10/05 12:13:58;;;;;;;;;;;16.00;99.90;;;;;;5065568;28;19956;-70
2022/10/05 12:16:32;;;;;;;;;;;16.10;99.90;;;;;;5043501;28;19943;-70
2022/10/05 12:19:04;;;;;;;;;;;16.20;99.90;;;;;;5057441;28;19924;-70
2022/10/05 12:21:43;;;;;;;;;;;16.30;99.90;;;;;;5066495;28;19956;-70
2022/10/05 12:24:18;;;;;;;;;;;16.30;99.90;;;;;;5066006;28;19924;-70
2022/10/05 12:26:56;;;;;;;;;;;16.30;99.90;;;;;;5064506;28;20421;-69
2022/10/05 12:29:33;;;;;;;;;;;16.30;99.90;;;;;;5062528;28;19993;-70
2022/10/05 12:32:04;;;;;;;;;;;16.20;99.90;;;;;;5066390;28;19928;-70
2022/10/05 12:34:37;;;;;;;;;;;16.10;99.90;;;;;;5063994;28;19924;-70
2022/10/05 12:37:23;;;;;;;;;;;16.10;99.90;;;;;;5064161;28;19925;-69
2022/10/05 12:39:55;;;;;;;;;;;16.10;99.90;;;;;;5062230;28;19989;-70
2022/10/05 12:42:39;;;;;;;;;;;16.10;99.90;;;;;;5066150;28;20027;-70
2022/10/05 12:45:16;;;;;;;;;;;16.20;99.90;;;;;;5062563;28;19927;-72
2022/10/05 12:47:53;;;;;;;;;;;16.20;99.90;;;;;;5063374;28;20019;-69
2022/10/05 12:50:33;;;;;;;;;;;16.30;99.90;;;;;;5062981;28;19928;-70
2022/10/05 12:53:09;;;;;;;;;;;16.20;99.90;;;;;;5061227;28;19920;-70
2022/10/05 12:55:56;;;;;;;;;;;16.20;99.90;;;;;;5064657;28;19924;-70
2022/10/05 12:58:37;;;;;;;;;;;16.20;99.90;;;;;;5065819;28;19924;-70
2022/10/05 13:01:24;;;;;;;;;;;16.20;99.90;;;;;;5061454;28;20062;-70
2022/10/05 13:03:56;;;;;;;;;;;16.20;99.90;;;;;;5065284;28;20050;-70
2022/10/05 13:06:39;;;;;;;;;;;16.20;99.90;;;;;;5065496;28;20316;-70
2022/10/05 13:09:09;;;;;;;;;;;16.20;99.90;;;;;;5060859;28;19924;-71
2022/10/05 13:11:45;;;;;;;;;;;16.30;99.90;;;;;;5063107;28;19924;-70
2022/10/05 13:14:12;;;;;;;;;;;16.20;99.90;;;;;;5066330;28;20349;-70
2022/10/05 13:16:44;;;;;;;;;;;16.30;99.90;;;;;;5063982;28;19927;-71
2022/10/05 13:19:14;;;;;;;;;;;16.40;99.90;;;;;;5065060;28;19966;-70
2022/10/05 13:21:59;;;;;;;;;;;16.40;99.90;;;;;;5065884;28;19929;-70
2022/10/05 13:24:31;;;;;;;;;;;16.50;99.90;;;;;;5063654;28;20692;-70
2022/10/05 13:27:04;;;;;;;;;;;16.50;99.90;;;;;;5064807;28;19934;-70
2022/10/05 13:29:36;;;;;;;;;;;16.50;99.90;;;;;;5063037;28;19948;-70
2022/10/05 13:32:15;;;;;;;;;;;16.50;99.90;;;;;;5065347;28;19921;-70
2022/10/05 13:34:47;;;;;;;;;;;16.50;99.90;;;;;;5063483;28;19962;-73
2022/10/05 13:37:19;;;;;;;;;;;16.50;99.90;;;;;;5069128;28;19978;-70
2022/10/05 13:40:05;;;;;;;;;;;16.40;99.90;;;;;;5069758;28;20015;-70
2022/10/05 13:42:39;;;;;;;;;;;16.40;99.90;;;;;;5068536;28;20340;-70
2022/10/05 13:45:29;;;;;;;;;;;16.40;99.90;;;;;;5064365;28;19920;-70
2022/10/05 13:48:18;;;;;;;;;;;16.40;99.90;;;;;;5054676;28;19920;-70
2022/10/05 13:50:54;;;;;;;;;;;16.30;99.90;;;;;;5066995;28;20067;-70
2022/10/05 13:53:32;;;;;;;;;;;16.30;99.90;;;;;;5069733;28;19928;-70
2022/10/05 13:56:06;;;;;;;;;;;16.30;99.90;;;;;;5066339;28;20609;-70
2022/10/05 13:58:32;;;;;;;;;;;16.20;99.90;;;;;;5066502;28;20325;-70
2022/10/05 14:01:01;;;;;;;;;;;16.20;99.90;;;;;;5067576;28;19959;-70
2022/10/05 14:03:33;;;;;;;;;;;16.20;99.90;;;;;;5067827;28;20287;-70
2022/10/05 14:06:11;;;;;;;;;;;16.20;99.90;;;;;;5065383;28;20381;-70
2022/10/05 14:09:04;;;;;;;;;;;16.20;99.90;;;;;;5065430;28;19947;-70
2022/10/05 14:11:33;;;;;;;;;;;16.20;99.90;;;;;;5061877;28;20007;-70
2022/10/05 14:14:14;;;;;;;;;;;16.10;99.90;;;;;;5065874;28;19959;-70
2022/10/05 14:16:51;;;;;;;;;;;16.10;99.90;;;;;;5064540;28;19928;-70
2022/10/05 14:19:53;;;;;;;;;;;16.10;99.90;;;;;;5049455;28;19925;-70
2022/10/05 14:22:21;;;;;;;;;;;16.10;99.90;;;;;;4986261;28;19922;-70
2022/10/05 14:25:06;;;;;;;;;;;16.00;99.90;;;;;;5050881;28;20289;-70
2022/10/05 14:27:35;;;;;;;;;;;15.90;99.90;;;;;;5064639;28;20095;-70
2022/10/05 14:30:17;;;;;;;;;;;15.90;99.90;;;;;;5069046;28;20006;-69
2022/10/05 14:32:54;;;;;;;;;;;15.90;99.90;;;;;;5066027;28;19924;-70
2022/10/05 14:35:24;;;;;;;;;;;15.80;99.90;;;;;;5064564;28;19932;-70
2022/10/05 14:37:55;;;;;;;;;;;15.90;99.90;;;;;;5068330;28;19950;-70
2022/10/05 14:40:28;;;;;;;;;;;15.80;99.90;;;;;;5067608;28;19924;-70
2022/10/05 14:42:56;;;;;;;;;;;15.80;99.90;;;;;;5063178;28;19924;-70
2022/10/05 14:45:24;;;;;;;;;;;15.80;99.90;;;;;;5067045;28;20042;-70
2022/10/05 14:48:05;;;;;;;;;;;15.80;99.90;;;;;;5063185;28;19978;-70
2022/10/05 14:50:31;;;;;;;;;;;15.80;99.90;;;;;;5065458;28;19989;-70
2022/10/05 14:52:58;;;;;;;;;;;15.90;99.90;;;;;;5048628;28;20279;-70
2022/10/05 14:55:42;;;;;;;;;;;16.00;99.90;;;;;;5068158;28;20027;-70
2022/10/05 14:58:30;;;;;;;;;;;16.00;99.90;;;;;;5066155;28;19920;-70
2022/10/05 15:01:15;;;;;;;;;;;16.00;99.90;;;;;;5063098;28;20431;-70
2022/10/05 15:03:42;;;;;;;;;;;16.00;99.90;;;;;;5064230;28;19951;-70
2022/10/05 15:06:14;;;;;;;;;;;16.00;99.90;;;;;;5067287;28;20000;-70
2022/10/05 15:08:44;;;;;;;;;;;16.00;99.90;;;;;;5066134;28;20326;-70
2022/10/05 15:11:15;;;;;;;;;;;15.90;99.90;;;;;;5067229;28;20393;-71